Kramer Junction, California
Current Conditions -  °F | °C
As of 4:55 PM on Friday 28 Nov 2014 (Local Time) from K9L2 Reporting Station
Clear Clear  
Wind Chill: 65°   Ceiling: Unl
Heat Index: 65°   Visibility: 10mi
Dew Point: -4°   Wind: 9mph
Humidity: 6%   Direction: 260°W
Pressure: 29.9"   Gusts: NA
Location:  35.0434°N, 117.645°W
Report Text: K9L2 290055Z AUTO 26008KT 10SM CLR 18/M20 A2990 RMK AO2 SLP131 T01831200 $
Loading
Personal Weather Stations






























Interactive Weather Map New forecast layout! Learn more

10-Day Weather Forecast

Advertisements
Track Severe Weather on mobile